createdAt,value
2023-05-07T00:00:51.098Z,79.87
2023-05-07T00:02:18.255Z,79.55
2023-05-07T00:03:48.226Z,79.09
2023-05-07T00:05:10.536Z,79.15
2023-05-07T00:06:42.342Z,79.27
2023-05-07T00:08:23.339Z,79.41
2023-05-07T00:09:48.284Z,79.27
2023-05-07T00:11:25.779Z,79.42
2023-05-07T00:13:09.435Z,79.04
2023-05-07T00:18:12.084Z,79.19
2023-05-07T00:19:46.347Z,79.28
2023-05-07T00:21:42.736Z,79.28
2023-05-07T00:23:16.779Z,79.63
2023-05-07T00:24:57.694Z,79.40
2023-05-07T00:26:48.714Z,79.29
2023-05-07T00:28:31.148Z,79.21
2023-05-07T00:30:05.413Z,79.37
2023-05-07T00:31:30.883Z,79.34
2023-05-07T00:33:26.387Z,79.37
2023-05-07T00:36:46.733Z,79.42
2023-05-07T00:38:48.378Z,79.61
2023-05-07T00:40:15.012Z,79.39
2023-05-07T00:43:28.788Z,79.24
2023-05-07T00:44:58.194Z,79.13
2023-05-07T00:46:36.785Z,79.23
2023-05-07T00:48:09.130Z,79.25
2023-05-07T00:49:46.525Z,79.13
2023-05-07T00:51:16.845Z,79.14
2023-05-07T00:52:43.970Z,79.05
2023-05-07T00:54:28.955Z,79.01
2023-05-07T00:55:54.992Z,79.02
2023-05-07T00:57:28.071Z,78.79
2023-05-07T00:59:03.122Z,78.71
2023-05-07T01:00:55.206Z,78.57
2023-05-07T01:02:30.190Z,78.84
2023-05-07T01:04:28.966Z,78.99
2023-05-07T01:06:35.136Z,79.00
2023-05-07T01:09:01.141Z,78.97
2023-05-07T01:10:58.115Z,79.08
2023-05-07T01:12:41.667Z,78.76
2023-05-07T01:14:15.499Z,78.67
2023-05-07T01:15:46.289Z,78.65
2023-05-07T01:17:35.806Z,78.60
2023-05-07T01:19:05.881Z,78.57
2023-05-07T01:20:43.721Z,78.87
2023-05-07T01:22:16.794Z,78.81
2023-05-07T01:23:54.234Z,78.90
2023-05-07T01:25:39.532Z,79.03
2023-05-07T01:27:04.199Z,79.07
2023-05-07T01:29:07.194Z,78.84
2023-05-07T01:30:46.786Z,78.92
2023-05-07T01:32:31.714Z,78.55
2023-05-07T01:34:21.592Z,78.78
2023-05-07T01:35:50.372Z,78.93
2023-05-07T01:37:15.913Z,78.82
2023-05-07T01:39:10.661Z,78.93
2023-05-07T01:40:36.841Z,78.96
2023-05-07T01:42:02.089Z,79.09
2023-05-07T01:43:29.920Z,79.07
2023-05-07T01:44:54.397Z,79.15
2023-05-07T01:53:30.569Z,79.91
2023-05-07T01:55:56.868Z,79.87
2023-05-07T01:58:04.681Z,79.92
2023-05-07T01:59:38.045Z,79.79
2023-05-07T02:11:06.664Z,79.82
2023-05-07T02:12:54.906Z,79.87
2023-05-07T02:14:48.907Z,79.90
2023-05-07T02:16:20.431Z,79.69
2023-05-07T02:18:16.604Z,79.86
2023-05-07T02:19:45.346Z,79.64
2023-05-07T02:21:15.012Z,79.60
2023-05-07T02:22:45.348Z,79.53
2023-05-07T02:24:13.518Z,79.49
2023-05-07T02:25:37.826Z,79.14
2023-05-07T02:27:05.004Z,79.14
2023-05-07T02:28:33.544Z,78.81
2023-05-07T02:29:58.462Z,78.63
2023-05-07T02:31:24.791Z,78.66
2023-05-07T02:32:46.803Z,78.71
2023-05-07T02:35:21.183Z,78.98
2023-05-07T02:40:15.459Z,78.92
2023-05-07T02:45:50.993Z,78.96
2023-05-07T02:47:56.423Z,78.75
2023-05-07T02:49:41.014Z,78.98
2023-05-07T03:35:30.421Z,78.65
2023-05-07T03:42:20.776Z,78.46
2023-05-07T03:46:16.907Z,78.08
2023-05-07T03:47:44.549Z,77.94
2023-05-07T03:49:40.641Z,78.01
2023-05-07T03:51:42.410Z,77.83
2023-05-07T03:53:43.483Z,77.91
2023-05-07T03:58:21.205Z,77.90
2023-05-07T03:59:51.580Z,77.94
2023-05-07T04:19:25.335Z,77.86
2023-05-07T04:21:50.034Z,77.81
2023-05-07T04:23:18.536Z,77.83
2023-05-07T04:30:29.339Z,77.51
2023-05-07T04:32:44.774Z,77.55
2023-05-07T04:34:43.492Z,77.04
2023-05-07T04:36:44.032Z,76.67
2023-05-07T04:38:11.335Z,76.81
2023-05-07T04:41:49.055Z,76.40
2023-05-07T04:43:26.241Z,76.25
2023-05-07T04:45:21.652Z,76.07
2023-05-07T04:47:38.792Z,76.10
2023-05-07T04:49:48.420Z,75.75
2023-05-07T04:51:58.142Z,75.76
2023-05-07T04:53:38.406Z,75.38
2023-05-07T04:55:33.367Z,75.40
2023-05-07T04:57:27.574Z,75.01
2023-05-07T04:59:04.441Z,75.00
2023-05-07T05:00:37.085Z,75.12
2023-05-07T05:02:41.336Z,74.60
2023-05-07T05:13:27.383Z,74.56
2023-05-07T05:18:21.360Z,74.15
2023-05-07T05:20:05.212Z,74.02
2023-05-07T05:21:37.900Z,73.78
2023-05-07T05:24:08.187Z,73.28
2023-05-07T05:27:13.665Z,73.05
2023-05-07T05:29:28.960Z,73.39
2023-05-07T05:39:48.331Z,73.28
2023-05-07T05:45:46.178Z,73.08
2023-05-07T05:53:12.682Z,72.69
2023-05-07T05:54:39.129Z,71.98
2023-05-07T05:56:43.788Z,71.53
2023-05-07T05:58:16.424Z,70.93
2023-05-07T06:06:49.038Z,70.30
2023-05-07T06:12:10.093Z,70.07
2023-05-07T06:13:38.734Z,69.60
2023-05-07T06:15:01.109Z,69.49
2023-05-07T06:16:23.051Z,69.79
2023-05-07T06:17:48.345Z,69.59
2023-05-07T06:19:09.540Z,69.33
2023-05-07T06:20:38.109Z,69.16
2023-05-07T06:22:33.338Z,68.92
2023-05-07T06:24:07.688Z,68.79
2023-05-07T06:25:30.692Z,68.74
2023-05-07T06:26:59.816Z,68.89
2023-05-07T06:28:27.344Z,68.37
2023-05-07T06:29:53.865Z,68.27
2023-05-07T06:31:22.823Z,67.78
2023-05-07T06:32:53.264Z,67.63
2023-05-07T06:34:18.442Z,67.47
2023-05-07T06:35:41.155Z,67.22
2023-05-07T06:37:06.175Z,67.00
2023-05-07T06:38:44.529Z,66.21
2023-05-07T06:40:09.378Z,65.51
2023-05-07T06:41:36.724Z,65.88
2023-05-07T06:43:42.810Z,65.81
2023-05-07T06:45:27.223Z,66.12
2023-05-07T06:46:52.087Z,66.16
2023-05-07T06:48:14.322Z,65.97
2023-05-07T06:49:45.857Z,66.13
2023-05-07T06:51:18.485Z,66.34
2023-05-07T06:52:41.274Z,66.03
2023-05-07T06:54:11.050Z,65.70
2023-05-07T06:55:35.788Z,65.59
2023-05-07T06:57:01.257Z,65.70
2023-05-07T06:58:25.354Z,65.80
2023-05-07T06:59:52.803Z,65.66
2023-05-07T07:01:25.394Z,65.65
2023-05-07T07:02:48.144Z,65.84
2023-05-07T07:04:20.288Z,65.90
2023-05-07T07:05:49.755Z,66.06
2023-05-07T07:08:29.446Z,66.17
2023-05-07T07:09:54.868Z,65.86
2023-05-07T07:11:36.732Z,65.77
2023-05-07T07:13:00.266Z,65.77
2023-05-07T07:14:27.328Z,65.29
2023-05-07T07:15:53.183Z,65.09
2023-05-07T07:17:33.035Z,64.98
2023-05-07T07:18:55.591Z,65.16
2023-05-07T07:20:40.549Z,65.26
2023-05-07T07:22:16.606Z,65.20
2023-05-07T07:24:44.315Z,65.05
2023-05-07T07:26:12.826Z,64.71
2023-05-07T07:27:35.461Z,64.10
2023-05-07T07:28:59.841Z,62.95
2023-05-07T07:30:22.716Z,62.28
2023-05-07T07:31:47.155Z,61.99
2023-05-07T07:33:26.000Z,61.28
2023-05-07T07:34:52.911Z,60.79
2023-05-07T07:36:16.478Z,59.63
2023-05-07T07:37:39.639Z,58.99
2023-05-07T07:39:04.834Z,58.19
2023-05-07T07:40:29.009Z,57.95
2023-05-07T07:41:55.173Z,58.07
2023-05-07T07:43:20.720Z,58.15
2023-05-07T07:44:43.578Z,57.99
2023-05-07T07:46:10.478Z,57.89
2023-05-07T07:47:52.662Z,57.77
2023-05-07T07:49:23.111Z,57.52
2023-05-07T07:51:06.693Z,57.50
2023-05-07T07:52:33.623Z,57.57
2023-05-07T07:54:02.061Z,57.65
2023-05-07T07:55:29.859Z,57.87
2023-05-07T07:57:19.679Z,58.15
2023-05-07T07:58:43.769Z,58.72
2023-05-07T08:00:08.762Z,58.82
2023-05-07T08:01:42.204Z,58.96
2023-05-07T08:03:18.283Z,59.26
2023-05-07T08:04:45.773Z,59.16
2023-05-07T08:06:08.153Z,59.38
2023-05-07T08:07:32.691Z,59.32
2023-05-07T08:09:16.651Z,59.73
2023-05-07T08:11:04.996Z,59.94
2023-05-07T08:12:38.870Z,60.33
2023-05-07T08:16:10.348Z,59.96
2023-05-07T08:17:40.482Z,59.89
2023-05-07T08:19:10.354Z,59.88
2023-05-07T08:20:33.399Z,60.01
2023-05-07T08:22:02.088Z,60.23
2023-05-07T08:23:25.137Z,60.48
2023-05-07T08:24:47.823Z,60.43
2023-05-07T08:26:14.275Z,60.14
2023-05-07T08:27:43.476Z,60.14
2023-05-07T08:31:16.147Z,60.82
2023-05-07T08:32:43.681Z,61.08
2023-05-07T08:34:14.744Z,60.89
2023-05-07T08:35:58.447Z,60.95
2023-05-07T08:37:22.984Z,60.45
2023-05-07T08:38:46.963Z,60.36
2023-05-07T08:40:14.762Z,60.32
2023-05-07T08:41:38.766Z,60.01
2023-05-07T08:43:02.775Z,60.50
2023-05-07T08:44:28.061Z,60.73
2023-05-07T08:45:53.987Z,60.84
2023-05-07T08:47:22.339Z,60.54
2023-05-07T08:48:51.713Z,60.26
2023-05-07T08:50:21.307Z,60.16
2023-05-07T08:51:45.310Z,60.25
2023-05-07T08:53:11.498Z,60.33
2023-05-07T08:54:49.530Z,60.41
2023-05-07T08:56:19.447Z,60.60
2023-05-07T08:57:43.977Z,60.48
2023-05-07T08:59:08.281Z,60.21
2023-05-07T09:00:31.575Z,60.52
2023-05-07T09:01:55.760Z,60.80
2023-05-07T09:03:18.630Z,60.64
2023-05-07T09:05:04.236Z,60.73
2023-05-07T09:06:28.476Z,60.50
2023-05-07T09:07:53.940Z,60.63
2023-05-07T09:09:34.885Z,60.62
2023-05-07T09:11:03.325Z,60.45
2023-05-07T09:12:32.357Z,60.37
2023-05-07T09:14:02.362Z,59.96
2023-05-07T09:15:32.066Z,59.58
2023-05-07T09:17:00.137Z,59.06
2023-05-07T09:33:54.846Z,58.44
2023-05-07T09:34:42.149Z,58.39
2023-05-07T09:37:04.370Z,58.28
2023-05-07T09:39:29.296Z,58.44
2023-05-07T09:41:12.930Z,58.26
2023-05-07T09:42:56.769Z,58.00
2023-05-07T09:44:28.088Z,58.13
2023-05-07T09:46:25.633Z,58.22
2023-05-07T09:47:59.305Z,58.45
2023-05-07T09:50:05.608Z,58.10
2023-05-07T09:51:48.143Z,57.85
2023-05-07T09:53:21.837Z,57.34
2023-05-07T09:54:47.959Z,56.89
2023-05-07T09:56:20.436Z,56.93
2023-05-07T09:58:37.000Z,56.17
2023-05-07T10:00:42.565Z,56.00
2023-05-07T10:02:28.743Z,54.39
2023-05-07T10:04:00.197Z,47.93
2023-05-07T10:05:30.452Z,48.19
2023-05-07T10:07:08.352Z,48.10
2023-05-07T10:08:54.467Z,47.38
2023-05-07T10:10:23.057Z,46.86
2023-05-07T10:12:10.341Z,47.95
2023-05-07T10:13:45.364Z,47.28
2023-05-07T10:15:12.863Z,46.90
2023-05-07T10:16:44.474Z,46.84
2023-05-07T10:19:42.151Z,47.17
2023-05-07T10:21:20.994Z,47.44
2023-05-07T10:22:56.128Z,47.31
2023-05-07T10:24:57.936Z,47.13
2023-05-07T10:26:44.068Z,47.59
2023-05-07T10:29:09.188Z,47.36
2023-05-07T10:31:41.662Z,47.37
2023-05-07T10:33:56.387Z,47.29
2023-05-07T10:42:25.403Z,47.76
2023-05-07T10:44:41.844Z,48.00
2023-05-07T10:49:33.756Z,48.82
2023-05-07T10:51:37.840Z,49.14
2023-05-07T10:56:09.896Z,49.86
2023-05-07T10:58:31.505Z,50.36
2023-05-07T11:00:48.596Z,50.47
2023-05-07T11:03:24.218Z,50.41
2023-05-07T11:08:41.618Z,50.72
2023-05-07T11:11:22.044Z,50.46
2023-05-07T11:15:01.546Z,49.44
2023-05-07T11:16:36.464Z,48.86
2023-05-07T11:21:26.612Z,47.97
2023-05-07T11:24:01.497Z,47.33
2023-05-07T11:27:53.988Z,48.60
2023-05-07T11:29:34.118Z,48.73
2023-05-07T11:31:13.381Z,49.17
2023-05-07T11:32:43.825Z,49.23
2023-05-07T11:34:41.700Z,49.54
2023-05-07T11:36:01.904Z,49.90
2023-05-07T11:37:52.950Z,50.17
2023-05-07T11:39:47.019Z,50.24
2023-05-07T11:41:53.838Z,50.08
2023-05-07T11:43:30.761Z,49.60
2023-05-07T11:46:18.463Z,49.29
2023-05-07T11:48:06.893Z,49.25
2023-05-07T12:09:08.975Z,50.87
2023-05-07T12:31:58.128Z,49.83
2023-05-07T12:38:39.547Z,49.77
2023-05-07T12:41:45.803Z,50.42
2023-05-07T13:00:44.320Z,50.03
2023-05-07T13:06:01.655Z,49.63
2023-05-07T13:13:59.284Z,49.99
2023-05-07T13:15:36.452Z,50.31
2023-05-07T13:20:15.295Z,49.95
2023-05-07T13:22:08.065Z,49.54
2023-05-07T13:23:31.143Z,49.67
2023-05-07T13:25:12.021Z,49.95
2023-05-07T13:29:50.114Z,50.09
2023-05-07T13:35:00.557Z,50.06
2023-05-07T13:36:34.121Z,49.84
2023-05-07T13:59:24.765Z,50.80
2023-05-07T14:09:41.350Z,51.27
2023-05-07T14:11:04.123Z,51.22
2023-05-07T14:12:38.762Z,51.23
2023-05-07T14:14:03.110Z,51.21
2023-05-07T14:18:04.991Z,51.08
2023-05-07T14:20:17.165Z,51.26
2023-05-07T14:21:46.961Z,51.37
2023-05-07T14:23:15.634Z,50.82
2023-05-07T14:27:12.809Z,50.83
2023-05-07T14:28:51.965Z,50.72
2023-05-07T14:31:22.809Z,50.66
2023-05-07T14:32:46.056Z,50.70
2023-05-07T14:34:20.818Z,50.31
2023-05-07T14:35:51.991Z,49.71
2023-05-07T14:39:21.164Z,50.47
2023-05-07T14:41:14.388Z,50.80
2023-05-07T14:44:43.009Z,50.83
2023-05-07T14:46:29.324Z,50.62
2023-05-07T14:47:56.777Z,50.59
2023-05-07T14:49:24.098Z,50.59
2023-05-07T14:51:06.433Z,50.87
2023-05-07T14:52:28.775Z,51.28
2023-05-07T14:54:06.981Z,51.38
2023-05-07T14:55:39.155Z,51.37
2023-05-07T14:57:23.126Z,51.25
2023-05-07T14:58:46.247Z,51.15
2023-05-07T15:00:10.927Z,51.36
2023-05-07T15:01:38.624Z,51.20
2023-05-07T15:03:14.782Z,51.54
2023-05-07T15:04:47.946Z,51.37
2023-05-07T15:07:25.458Z,51.61
2023-05-07T15:08:59.358Z,51.57
2023-05-07T15:11:30.452Z,51.64
2023-05-07T15:13:16.172Z,51.73
2023-05-07T15:14:38.813Z,51.62
2023-05-07T15:16:26.760Z,51.82
2023-05-07T15:17:48.901Z,51.99
2023-05-07T15:19:36.192Z,51.97
2023-05-07T15:21:04.515Z,52.24
2023-05-07T15:22:38.283Z,51.89
2023-05-07T15:24:26.735Z,51.67
2023-05-07T15:25:52.140Z,51.67
2023-05-07T15:27:16.034Z,51.67
2023-05-07T15:29:16.501Z,51.96
2023-05-07T15:31:40.096Z,51.97
2023-05-07T15:33:09.319Z,51.83
2023-05-07T15:34:32.540Z,51.97
2023-05-07T15:36:10.034Z,52.18
2023-05-07T15:40:03.516Z,52.93
2023-05-07T15:54:56.737Z,54.46
2023-05-07T15:59:30.833Z,54.96
2023-05-07T16:02:05.713Z,54.78
2023-05-07T16:07:32.301Z,55.35
2023-05-07T16:09:03.545Z,55.10
2023-05-07T18:15:10.740Z,58.25
2023-05-07T18:16:55.491Z,58.21
2023-05-07T19:18:38.483Z,59.29
2023-05-07T19:20:12.635Z,58.99
2023-05-07T19:21:38.169Z,59.35
2023-05-07T19:23:16.745Z,59.39
2023-05-07T19:24:41.316Z,59.52
2023-05-07T19:26:11.962Z,59.17
2023-05-07T19:30:49.991Z,59.16
2023-05-07T19:33:08.827Z,59.34
2023-05-07T19:34:37.116Z,59.19
2023-05-07T19:36:32.908Z,59.20
2023-05-07T19:40:28.575Z,58.86
2023-05-07T19:42:04.879Z,58.59
2023-05-07T19:43:36.344Z,58.65
2023-05-07T19:45:02.714Z,58.38
2023-05-07T19:46:32.715Z,58.15
2023-05-07T19:47:57.880Z,58.49
2023-05-07T19:49:23.526Z,58.37
2023-05-07T19:50:52.367Z,58.00
2023-05-07T19:52:20.573Z,58.10
2023-05-07T20:17:49.779Z,58.16
2023-05-07T20:20:08.351Z,58.60
2023-05-07T20:21:31.693Z,58.50
2023-05-07T20:22:53.045Z,58.45
2023-05-07T20:24:34.721Z,57.78
2023-05-07T20:26:03.731Z,57.81
2023-05-07T20:27:30.248Z,57.71
2023-05-07T20:29:01.117Z,57.75
2023-05-07T20:30:26.675Z,57.71
2023-05-07T20:31:49.391Z,57.64
2023-05-07T20:33:18.550Z,57.70
2023-05-07T20:34:43.189Z,57.71
2023-05-07T20:36:12.341Z,57.54
2023-05-07T20:37:43.792Z,57.68
2023-05-07T20:39:16.275Z,57.94
2023-05-07T20:40:48.972Z,57.59
2023-05-07T20:42:13.151Z,57.29
2023-05-07T20:44:46.495Z,57.06
2023-05-07T20:46:51.776Z,57.35
2023-05-07T20:48:22.815Z,57.10
2023-05-07T20:49:51.405Z,57.00
2023-05-07T20:51:17.421Z,56.90
2023-05-07T20:52:44.134Z,56.93
2023-05-07T20:54:08.787Z,56.90
2023-05-07T20:55:31.409Z,56.96
2023-05-07T20:57:02.260Z,57.12
2023-05-07T20:58:32.220Z,56.78
2023-05-07T21:00:00.781Z,56.64
2023-05-07T21:01:23.716Z,56.72
2023-05-07T21:02:57.246Z,56.54
2023-05-07T21:04:24.649Z,56.26
2023-05-07T21:06:01.785Z,56.07
2023-05-07T21:14:10.838Z,56.31
2023-05-07T21:19:33.967Z,56.44
2023-05-07T21:21:48.571Z,56.31
2023-05-07T21:23:27.555Z,56.22
2023-05-07T21:24:50.130Z,56.18
2023-05-07T21:26:26.036Z,55.99
2023-05-07T21:27:54.693Z,56.34
2023-05-07T21:32:41.986Z,56.30
2023-05-07T21:34:04.725Z,56.20
2023-05-07T21:35:59.345Z,56.44
2023-05-07T21:37:25.211Z,56.24
2023-05-07T21:38:49.082Z,56.62
2023-05-07T21:40:12.295Z,56.60
2023-05-07T21:41:35.074Z,56.64
2023-05-07T21:43:06.838Z,56.97
2023-05-07T21:44:47.894Z,57.01
2023-05-07T21:46:17.883Z,57.08
2023-05-07T21:47:40.778Z,56.70
2023-05-07T21:49:04.164Z,56.90
2023-05-07T21:58:05.995Z,57.32
2023-05-07T21:59:33.556Z,57.88
2023-05-07T22:00:56.713Z,57.91
2023-05-07T22:02:18.196Z,58.03
2023-05-07T22:03:49.240Z,58.06
2023-05-07T22:06:58.862Z,57.82
2023-05-07T22:08:21.426Z,58.15
2023-05-07T22:09:46.502Z,58.33
2023-05-07T22:11:11.727Z,58.17
2023-05-07T22:12:33.960Z,58.24
2023-05-07T22:13:57.886Z,58.42
2023-05-07T22:15:19.138Z,58.31
2023-05-07T22:16:43.029Z,58.52
2023-05-07T22:18:06.751Z,58.78
2023-05-07T22:19:28.251Z,58.64
2023-05-07T22:20:53.079Z,58.68
2023-05-07T22:22:14.460Z,58.51
2023-05-07T22:23:36.857Z,58.82
2023-05-07T22:24:59.059Z,59.05
2023-05-07T22:26:22.951Z,59.03
2023-05-07T22:27:45.847Z,59.21
2023-05-07T22:29:09.809Z,59.10
2023-05-07T22:30:33.283Z,59.19
2023-05-07T22:31:59.039Z,59.43
2023-05-07T22:33:21.580Z,59.27
2023-05-07T22:34:43.771Z,59.40
2023-05-07T22:36:07.943Z,59.51
2023-05-07T22:37:30.684Z,59.49
2023-05-07T22:38:53.359Z,59.65
2023-05-07T22:40:16.071Z,59.77
2023-05-07T22:41:38.703Z,59.88
2023-05-07T22:43:04.473Z,59.99
2023-05-07T22:44:31.897Z,59.79
2023-05-07T22:46:06.325Z,59.69
2023-05-07T22:47:37.803Z,59.83
2023-05-07T22:49:21.253Z,59.82
2023-05-07T22:50:43.640Z,60.12
2023-05-07T22:52:09.139Z,60.37
2023-05-07T22:53:31.487Z,60.22
2023-05-07T22:54:53.608Z,60.43
2023-05-07T22:56:20.956Z,60.49
2023-05-07T22:57:45.607Z,60.47
2023-05-07T22:59:42.648Z,60.22
2023-05-07T23:01:13.895Z,60.59
2023-05-07T23:02:38.408Z,60.70
2023-05-07T23:04:02.534Z,60.71
2023-05-07T23:05:24.928Z,60.82
2023-05-07T23:06:46.489Z,60.81
2023-05-07T23:08:08.551Z,60.99
2023-05-07T23:09:29.757Z,61.15
2023-05-07T23:10:54.467Z,61.31
2023-05-07T23:12:15.716Z,61.47
2023-05-07T23:13:38.290Z,61.44
2023-05-07T23:15:04.120Z,61.51
2023-05-07T23:16:28.924Z,61.88
2023-05-07T23:17:56.176Z,61.63
2023-05-07T23:19:43.613Z,61.71
2023-05-07T23:21:39.409Z,61.66
2023-05-07T23:23:07.552Z,61.75
2023-05-07T23:24:29.938Z,61.95
2023-05-07T23:25:52.720Z,62.08
2023-05-07T23:30:53.938Z,62.08
2023-05-07T23:32:21.197Z,62.17
2023-05-07T23:33:48.436Z,62.18
2023-05-07T23:35:34.243Z,62.32
2023-05-07T23:36:57.098Z,62.45
2023-05-07T23:38:30.701Z,62.34
2023-05-07T23:39:57.483Z,62.65
2023-05-07T23:41:19.950Z,62.67
2023-05-07T23:42:44.232Z,62.56
2023-05-07T23:44:06.960Z,62.87
2023-05-07T23:45:31.596Z,62.88
2023-05-07T23:46:55.292Z,62.96
2023-05-07T23:49:05.683Z,63.14
2023-05-07T23:50:35.228Z,63.10
2023-05-07T23:51:57.601Z,63.35
2023-05-07T23:53:19.830Z,63.49
2023-05-07T23:54:42.017Z,63.79
2023-05-07T23:56:03.465Z,63.85
2023-05-07T23:57:25.963Z,64.01
2023-05-07T23:58:48.408Z,64.09
